createdAt,value
2022-09-10T00:01:18.527Z,8.98
2022-09-10T00:03:45.741Z,9.98
2022-09-10T00:06:12.953Z,8.60
2022-09-10T00:08:40.456Z,7.18
2022-09-10T00:11:10.156Z,8.82
2022-09-10T00:13:39.828Z,10.23
2022-09-10T00:16:13.443Z,11.50
2022-09-10T00:21:12.263Z,11.38
2022-09-10T00:23:40.040Z,14.32
2022-09-10T00:26:15.361Z,12.25
2022-09-10T00:28:43.552Z,15.05
2022-09-10T00:31:11.421Z,12.85
2022-09-10T00:33:38.590Z,11.77
2022-09-10T00:36:15.257Z,14.02
2022-09-10T00:38:42.515Z,15.27
2022-09-10T00:41:09.694Z,13.90
2022-09-10T00:43:50.426Z,13.02
2022-09-10T00:46:24.656Z,16.02
2022-09-10T00:48:52.901Z,14.40
2022-09-10T00:51:21.277Z,10.00
2022-09-10T00:53:49.875Z,16.83
2022-09-10T00:56:17.285Z,10.25
2022-09-10T00:58:46.498Z,16.58
2022-09-10T01:01:13.922Z,13.23
2022-09-10T01:03:42.741Z,13.10
2022-09-10T01:06:10.969Z,13.35
2022-09-10T01:08:38.207Z,17.13
2022-09-10T01:11:23.610Z,17.02
2022-09-10T01:14:10.295Z,16.33
2022-09-10T01:16:46.405Z,14.23
2022-09-10T01:19:35.180Z,11.02
2022-09-10T01:22:32.868Z,13.68
2022-09-10T01:25:12.444Z,11.55
2022-09-10T01:27:47.972Z,12.52
2022-09-10T01:30:18.906Z,11.43
2022-09-10T01:33:11.343Z,9.82
2022-09-10T01:35:44.936Z,12.23
2022-09-10T01:38:23.885Z,13.20
2022-09-10T01:40:53.236Z,11.15
2022-09-10T01:43:20.408Z,8.25
2022-09-10T01:46:21.875Z,6.43
2022-09-10T01:49:29.111Z,9.98
2022-09-10T01:52:46.907Z,6.38
2022-09-10T01:55:22.819Z,9.90
2022-09-10T01:58:12.429Z,7.45
2022-09-10T02:00:46.059Z,6.72
2022-09-10T02:05:45.953Z,9.63
2022-09-10T02:08:20.637Z,9.68
2022-09-10T02:10:58.994Z,4.68
2022-09-10T02:13:28.269Z,7.50
2022-09-10T02:15:56.918Z,4.78
2022-09-10T02:18:25.839Z,7.03
2022-09-10T02:20:58.435Z,6.05
2022-09-10T02:23:32.533Z,6.78
2022-09-10T02:25:59.684Z,8.00
2022-09-10T02:28:27.117Z,8.18
2022-09-10T02:30:55.509Z,7.97
2022-09-10T02:33:22.616Z,8.45
2022-09-10T02:35:50.250Z,5.55
2022-09-10T02:38:18.551Z,6.38
2022-09-10T02:40:49.650Z,8.90
2022-09-10T02:43:17.834Z,7.80
2022-09-10T02:45:45.295Z,8.00
2022-09-10T02:48:12.963Z,5.63
2022-09-10T02:50:40.330Z,5.97
2022-09-10T02:53:07.375Z,8.43
2022-09-10T02:55:34.612Z,5.70
2022-09-10T02:58:02.054Z,8.80
2022-09-10T03:00:29.301Z,9.80
2022-09-10T03:03:00.846Z,8.60
2022-09-10T03:05:29.553Z,6.43
2022-09-10T03:07:57.561Z,8.93
2022-09-10T03:10:27.192Z,5.00
2022-09-10T03:12:54.682Z,6.28
2022-09-10T03:15:23.287Z,8.40
2022-09-10T03:17:51.276Z,5.50
2022-09-10T03:20:18.613Z,6.65
2022-09-10T03:22:46.595Z,4.65
2022-09-10T03:25:13.685Z,5.63
2022-09-10T03:27:40.808Z,7.55
2022-09-10T03:30:08.702Z,6.78
2022-09-10T03:32:35.754Z,6.15
2022-09-10T03:35:02.879Z,6.30
2022-09-10T03:37:31.637Z,6.80
2022-09-10T03:39:59.176Z,8.75
2022-09-10T03:42:26.373Z,6.22
2022-09-10T03:44:53.386Z,6.07
2022-09-10T03:47:20.445Z,7.05
2022-09-10T03:49:47.567Z,5.80
2022-09-10T03:52:14.604Z,5.78
2022-09-10T03:54:41.726Z,8.00
2022-09-10T03:57:08.940Z,5.43
2022-09-10T03:59:35.957Z,4.68
2022-09-10T04:02:03.453Z,5.32
2022-09-10T04:04:32.235Z,5.22
2022-09-10T04:06:59.341Z,8.70
2022-09-10T04:09:26.385Z,6.30
2022-09-10T04:11:53.508Z,5.82
2022-09-10T04:14:20.546Z,5.45
2022-09-10T04:16:47.606Z,4.88
2022-09-10T04:19:14.766Z,4.32
2022-09-10T04:21:41.890Z,6.07
2022-09-10T04:24:14.872Z,11.00
2022-09-10T04:26:42.198Z,11.32
2022-09-10T04:29:09.218Z,10.38
2022-09-10T04:31:36.364Z,14.82
2022-09-10T04:34:03.509Z,11.80
2022-09-10T04:36:30.603Z,12.57
2022-09-10T04:38:58.592Z,20.25
2022-09-10T04:41:25.674Z,13.70
2022-09-10T04:43:52.726Z,14.07
2022-09-10T04:46:19.867Z,16.63
2022-09-10T04:48:47.414Z,14.25
2022-09-10T04:51:16.775Z,17.55
2022-09-10T04:53:46.238Z,10.95
2022-09-10T04:56:13.724Z,13.00
2022-09-10T04:58:41.676Z,12.75
2022-09-10T05:01:09.181Z,12.20
2022-09-10T05:03:36.539Z,13.65
2022-09-10T05:06:05.313Z,13.30
2022-09-10T05:08:32.720Z,12.98
2022-09-10T05:11:01.517Z,19.80
2022-09-10T05:13:31.387Z,14.93
2022-09-10T05:16:01.942Z,16.05
2022-09-10T05:18:29.022Z,15.48
2022-09-10T05:20:56.163Z,12.40
2022-09-10T05:23:23.356Z,14.05
2022-09-10T05:25:50.390Z,11.65
2022-09-10T05:28:17.754Z,11.10
2022-09-10T05:30:51.239Z,14.13
2022-09-10T05:33:18.742Z,11.57
2022-09-10T05:35:48.452Z,11.32
2022-09-10T05:38:15.508Z,14.25
2022-09-10T05:40:43.171Z,12.52
2022-09-10T05:43:12.305Z,10.85
2022-09-10T05:45:39.385Z,8.45
2022-09-10T05:48:06.730Z,9.73
2022-09-10T05:50:33.808Z,15.82
2022-09-10T05:53:01.477Z,8.93
2022-09-10T05:55:30.815Z,6.85
2022-09-10T05:57:58.786Z,9.95
2022-09-10T06:00:25.895Z,8.90
2022-09-10T06:02:53.646Z,7.53
2022-09-10T06:05:23.526Z,6.93
2022-09-10T06:07:51.171Z,8.68
2022-09-10T06:10:18.890Z,8.70
2022-09-10T06:12:51.456Z,7.45
2022-09-10T06:15:20.000Z,5.60
2022-09-10T06:17:47.161Z,5.60
2022-09-10T06:20:14.337Z,4.00
2022-09-10T06:22:41.577Z,4.70
2022-09-10T06:25:09.216Z,5.53
2022-09-10T06:27:36.253Z,5.13
2022-09-10T06:30:03.418Z,5.80
2022-09-10T06:32:32.504Z,6.93
2022-09-10T06:34:59.579Z,5.28
2022-09-10T06:37:27.321Z,9.77
2022-09-10T06:39:54.456Z,7.97
2022-09-10T06:42:21.536Z,5.20
2022-09-10T06:44:48.778Z,6.45
2022-09-10T06:48:18.832Z,6.20
2022-09-10T06:50:03.061Z,6.03
2022-09-10T06:52:30.116Z,11.70
2022-09-10T06:54:57.128Z,8.20
2022-09-10T06:57:27.134Z,6.28
2022-09-10T06:59:54.282Z,7.45
2022-09-10T07:02:21.388Z,8.73
2022-09-10T07:04:48.540Z,6.50
2022-09-10T07:07:15.944Z,4.70
2022-09-10T07:09:43.560Z,5.10
2022-09-10T07:12:10.564Z,4.22
2022-09-10T07:14:37.964Z,6.55
2022-09-10T07:17:05.028Z,8.68
2022-09-10T07:19:33.629Z,6.78
2022-09-10T07:22:01.642Z,6.47
2022-09-10T07:24:28.893Z,9.55
2022-09-10T07:26:57.310Z,8.13
2022-09-10T07:29:24.484Z,3.40
2022-09-10T07:31:51.578Z,6.88
2022-09-10T07:34:18.632Z,6.43
2022-09-10T07:36:45.775Z,8.93
2022-09-10T07:39:12.871Z,5.80
2022-09-10T07:41:39.867Z,5.95
2022-09-10T07:44:07.043Z,4.57
2022-09-10T07:46:34.236Z,5.38
2022-09-10T07:49:02.199Z,7.28
2022-09-10T07:51:32.763Z,7.15
2022-09-10T07:54:00.289Z,6.82
2022-09-10T07:56:27.534Z,5.22
2022-09-10T07:58:57.308Z,16.77
2022-09-10T08:01:24.589Z,10.63
2022-09-10T08:03:52.012Z,11.02
2022-09-10T08:06:20.049Z,12.70
2022-09-10T08:08:47.098Z,8.32
2022-09-10T08:11:18.095Z,11.10
2022-09-10T08:13:50.804Z,8.35
2022-09-10T08:16:25.632Z,14.93
2022-09-10T08:18:55.914Z,11.82
2022-09-10T08:21:23.339Z,12.45
2022-09-10T08:23:51.972Z,10.80
2022-09-10T08:26:19.338Z,11.95
2022-09-10T08:28:47.661Z,8.55
2022-09-10T08:31:14.824Z,11.82
2022-09-10T08:33:42.815Z,14.48
2022-09-10T08:36:12.422Z,15.38
2022-09-10T08:38:40.331Z,11.73
2022-09-10T08:41:32.813Z,9.75
2022-09-10T08:44:31.953Z,7.35
2022-09-10T08:47:10.967Z,7.75
2022-09-10T08:50:13.598Z,8.18
2022-09-10T08:52:56.712Z,6.82
2022-09-10T08:55:34.669Z,7.28
2022-09-10T08:58:07.238Z,6.18
2022-09-10T09:00:39.418Z,7.88
2022-09-10T09:03:21.974Z,11.70
2022-09-10T09:05:54.602Z,10.43
2022-09-10T09:08:28.065Z,11.90
2022-09-10T09:11:04.441Z,12.23
2022-09-10T09:13:50.274Z,9.93
2022-09-10T09:16:44.928Z,10.32
2022-09-10T09:19:28.813Z,10.77
2022-09-10T09:24:42.445Z,9.98
2022-09-10T09:27:15.093Z,9.52
2022-09-10T09:29:44.867Z,7.70
2022-09-10T09:32:16.534Z,9.88
2022-09-10T09:35:06.364Z,10.75
2022-09-10T09:37:35.067Z,13.70
2022-09-10T09:40:20.616Z,9.60
2022-09-10T09:42:50.729Z,10.52
2022-09-10T09:45:32.645Z,9.57
2022-09-10T09:48:00.108Z,13.27
2022-09-10T09:50:39.169Z,13.57
2022-09-10T09:53:06.202Z,18.75
2022-09-10T09:55:42.060Z,18.77
2022-09-10T09:58:21.440Z,20.90
2022-09-10T10:00:54.449Z,17.90
2022-09-10T10:03:30.103Z,14.70
2022-09-10T10:06:08.411Z,18.80
2022-09-10T10:08:40.282Z,20.85
2022-09-10T10:11:08.671Z,11.10
2022-09-10T10:13:39.419Z,13.20
2022-09-10T10:16:35.982Z,10.07
2022-09-10T10:19:04.013Z,12.18
2022-09-10T10:21:33.766Z,12.63
2022-09-10T10:24:01.441Z,13.13
2022-09-10T10:26:36.129Z,9.88
2022-09-10T10:29:19.347Z,13.85
2022-09-10T10:31:51.036Z,10.75
2022-09-10T10:34:45.803Z,10.55
2022-09-10T10:37:43.325Z,7.75
2022-09-10T10:40:13.758Z,8.48
2022-09-10T10:42:54.453Z,11.13
2022-09-10T10:45:55.136Z,12.18
2022-09-10T10:48:34.559Z,12.43
2022-09-10T10:51:40.713Z,9.95
2022-09-10T10:54:24.081Z,8.93
2022-09-10T10:57:03.936Z,10.30
2022-09-10T10:59:36.908Z,10.30
2022-09-10T11:02:30.068Z,9.98
2022-09-10T11:05:02.821Z,8.30
2022-09-10T11:07:33.709Z,9.68
2022-09-10T11:10:33.278Z,10.18
2022-09-10T11:13:09.811Z,9.95
2022-09-10T11:15:59.676Z,10.23
2022-09-10T11:18:34.710Z,10.35
2022-09-10T11:21:16.649Z,8.45
2022-09-10T11:24:09.272Z,9.80
2022-09-10T11:26:44.936Z,13.18
2022-09-10T11:29:19.920Z,10.00
2022-09-10T11:31:54.012Z,5.25
2022-09-10T11:34:49.633Z,11.52
2022-09-10T11:38:04.349Z,13.65
2022-09-10T11:41:00.781Z,6.70
2022-09-10T11:44:04.976Z,8.65
2022-09-10T11:47:00.374Z,10.98
2022-09-10T11:49:55.023Z,10.00
2022-09-10T11:52:26.018Z,9.10
2022-09-10T11:54:54.465Z,10.80
2022-09-10T11:57:30.341Z,9.98
2022-09-10T12:00:12.102Z,8.43
2022-09-10T12:02:57.801Z,8.30
2022-09-10T12:05:30.688Z,10.32
2022-09-10T12:08:04.253Z,11.43
2022-09-10T12:11:01.792Z,10.85
2022-09-10T12:13:28.949Z,9.40
2022-09-10T12:16:02.777Z,7.00
2022-09-10T12:18:42.894Z,13.13
2022-09-10T12:21:34.572Z,15.65
2022-09-10T12:24:21.529Z,7.82
2022-09-10T12:26:48.859Z,8.63
2022-09-10T12:29:45.411Z,16.13
2022-09-10T12:32:21.443Z,15.10
2022-09-10T12:35:08.961Z,12.15
2022-09-10T12:37:36.286Z,14.38
2022-09-10T12:40:25.539Z,15.18
2022-09-10T12:42:58.320Z,14.75
2022-09-10T12:46:03.465Z,13.02
2022-09-10T12:48:33.157Z,13.50
2022-09-10T12:51:00.950Z,10.77
2022-09-10T12:53:31.744Z,11.82
2022-09-10T12:56:15.843Z,13.18
2022-09-10T12:59:00.941Z,10.48
2022-09-10T13:01:40.912Z,11.10
2022-09-10T13:04:30.415Z,11.63
2022-09-10T13:07:01.852Z,8.15
2022-09-10T13:09:39.893Z,8.48
2022-09-10T13:12:20.189Z,10.45
2022-09-10T13:14:51.461Z,8.38
2022-09-10T13:17:51.809Z,8.90
2022-09-10T13:20:21.629Z,11.18
2022-09-10T13:23:01.943Z,8.93
2022-09-10T13:25:37.601Z,14.55
2022-09-10T13:28:37.314Z,18.88
2022-09-10T13:31:13.437Z,15.77
2022-09-10T13:33:52.611Z,14.40
2022-09-10T13:36:50.383Z,11.32
2022-09-10T13:39:34.739Z,11.43
2022-09-10T13:42:07.410Z,9.27
2022-09-10T13:44:46.693Z,16.07
2022-09-10T13:47:18.483Z,10.65
2022-09-10T13:49:51.937Z,13.95
2022-09-10T13:55:00.025Z,11.88
2022-09-10T13:57:27.053Z,9.55
2022-09-10T14:00:20.282Z,12.98
2022-09-10T14:02:51.004Z,16.50
2022-09-10T14:05:26.957Z,13.13
2022-09-10T14:07:56.509Z,10.45
2022-09-10T14:10:24.617Z,15.18
2022-09-10T14:12:53.660Z,11.45
2022-09-10T14:15:25.129Z,13.43
2022-09-10T14:17:57.443Z,13.45
2022-09-10T14:20:27.806Z,16.40
2022-09-10T14:23:01.120Z,13.57
2022-09-10T14:25:34.391Z,18.38
2022-09-10T14:28:16.753Z,17.42
2022-09-10T14:30:44.947Z,8.63
2022-09-10T14:33:35.729Z,14.90
2022-09-10T14:36:23.738Z,16.10
2022-09-10T14:39:23.204Z,17.05
2022-09-10T14:42:08.160Z,14.95
2022-09-10T14:44:44.138Z,13.07
2022-09-10T14:47:11.186Z,16.10
2022-09-10T14:49:41.692Z,16.58
2022-09-10T14:52:12.157Z,12.35
2022-09-10T14:54:39.442Z,12.93
2022-09-10T14:57:15.753Z,14.25
2022-09-10T14:59:46.783Z,14.30
2022-09-10T15:02:16.472Z,10.88
2022-09-10T15:04:44.253Z,12.93
2022-09-10T15:07:12.346Z,16.33
2022-09-10T15:09:40.313Z,11.45
2022-09-10T15:12:31.940Z,10.25
2022-09-10T15:14:59.875Z,12.20
2022-09-10T15:17:27.442Z,16.00
2022-09-10T15:19:56.278Z,15.70
2022-09-10T15:22:26.538Z,15.23
2022-09-10T15:25:11.335Z,15.95
2022-09-10T15:27:38.817Z,12.63
2022-09-10T15:30:06.914Z,9.40
2022-09-10T15:32:34.056Z,13.27
2022-09-10T15:35:01.657Z,14.52
2022-09-10T15:37:28.674Z,12.52
2022-09-10T15:39:58.339Z,16.10
2022-09-10T15:42:25.586Z,11.32
2022-09-10T15:44:52.613Z,16.38
2022-09-10T15:47:19.751Z,15.85
2022-09-10T15:49:47.541Z,13.68
2022-09-10T15:52:14.645Z,17.05
2022-09-10T15:54:43.538Z,12.68
2022-09-10T15:57:10.657Z,15.90
2022-09-10T15:59:37.671Z,15.35
2022-09-10T16:02:05.551Z,15.23
2022-09-10T16:04:35.632Z,13.70
2022-09-10T16:07:03.796Z,17.38
2022-09-10T16:09:31.163Z,13.30
2022-09-10T16:11:58.295Z,15.68
2022-09-10T16:14:25.405Z,15.40
2022-09-10T16:16:53.995Z,16.38
2022-09-10T16:19:21.320Z,12.57
2022-09-10T16:21:48.624Z,11.70
2022-09-10T16:24:15.688Z,13.10
2022-09-10T16:26:44.344Z,14.10
2022-09-10T16:29:22.563Z,13.13
2022-09-10T16:31:50.543Z,9.10
2022-09-10T16:34:20.057Z,10.95
2022-09-10T16:36:51.858Z,11.82
2022-09-10T16:39:20.332Z,12.32
2022-09-10T16:41:49.091Z,11.65
2022-09-10T16:44:18.252Z,13.55
2022-09-10T16:46:47.404Z,10.85
2022-09-10T16:49:17.565Z,14.43
2022-09-10T16:51:46.520Z,13.27
2022-09-10T16:54:14.499Z,16.10
2022-09-10T16:56:46.158Z,15.00
2022-09-10T16:59:22.002Z,22.85
2022-09-10T17:01:50.451Z,13.02
2022-09-10T17:04:24.602Z,14.50
2022-09-10T17:06:53.451Z,12.35
2022-09-10T17:09:20.665Z,13.85
2022-09-10T17:11:47.742Z,19.15
2022-09-10T17:14:14.868Z,15.13
2022-09-10T17:16:43.759Z,13.98
2022-09-10T17:19:20.643Z,15.60
2022-09-10T17:21:51.570Z,11.88
2022-09-10T17:24:21.263Z,13.68
2022-09-10T17:26:48.973Z,15.38
2022-09-10T17:29:19.129Z,11.85
2022-09-10T17:31:47.407Z,14.75
2022-09-10T17:34:15.999Z,13.90
2022-09-10T17:36:46.606Z,12.13
2022-09-10T17:39:14.785Z,12.32
2022-09-10T17:41:42.788Z,14.57
2022-09-10T17:44:11.636Z,16.05
2022-09-10T17:46:38.977Z,12.68
2022-09-10T17:49:06.811Z,12.13
2022-09-10T17:51:35.167Z,14.23
2022-09-10T17:54:05.291Z,12.30
2022-09-10T17:56:32.470Z,12.13
2022-09-10T17:59:04.805Z,13.57
2022-09-10T18:01:36.514Z,15.70
2022-09-10T18:04:05.083Z,14.40
2022-09-10T18:06:35.899Z,11.25
2022-09-10T18:09:03.976Z,15.05
2022-09-10T18:11:33.714Z,17.17
2022-09-10T18:14:01.114Z,22.95
2022-09-10T18:16:31.513Z,12.65
2022-09-10T18:19:01.311Z,17.02
2022-09-10T18:21:31.596Z,14.25
2022-09-10T18:24:04.521Z,22.45
2022-09-10T18:26:34.193Z,14.32
2022-09-10T18:29:07.241Z,16.90
2022-09-10T18:31:37.497Z,14.70
2022-09-10T18:34:07.008Z,13.95
2022-09-10T18:36:35.047Z,14.50
2022-09-10T18:39:14.054Z,13.77
2022-09-10T18:41:43.072Z,18.00
2022-09-10T18:44:17.059Z,16.55
2022-09-10T18:46:45.948Z,15.88
2022-09-10T18:49:17.907Z,23.35
2022-09-10T18:51:48.496Z,18.63
2022-09-10T18:54:17.298Z,16.08
2022-09-10T18:56:45.587Z,14.50
2022-09-10T18:59:20.481Z,21.00
2022-09-10T19:01:48.774Z,16.42
2022-09-10T19:04:20.658Z,13.95
2022-09-10T19:06:49.089Z,16.35
2022-09-10T19:09:18.872Z,20.70
2022-09-10T19:11:49.229Z,12.98
2022-09-10T19:14:19.379Z,22.40
2022-09-10T19:16:48.014Z,17.38
2022-09-10T19:19:26.480Z,17.25
2022-09-10T19:21:59.920Z,16.55
2022-09-10T19:24:44.103Z,14.52
2022-09-10T19:27:15.885Z,12.77
2022-09-10T19:29:43.398Z,15.75
2022-09-10T19:32:27.025Z,16.30
2022-09-10T19:34:55.724Z,21.55
2022-09-10T19:37:22.822Z,16.10
2022-09-10T19:39:49.990Z,15.80
2022-09-10T19:42:17.650Z,15.13
2022-09-10T19:44:44.822Z,14.65
2022-09-10T19:47:12.464Z,10.57
2022-09-10T19:49:39.586Z,15.10
2022-09-10T19:52:06.650Z,9.30
2022-09-10T19:54:33.829Z,17.33
2022-09-10T19:57:00.881Z,12.88
2022-09-10T19:59:28.672Z,15.82
2022-09-10T20:01:55.984Z,10.20
2022-09-10T20:04:23.170Z,12.43
2022-09-10T20:06:50.679Z,14.50
2022-09-10T20:09:17.935Z,16.13
2022-09-10T20:11:45.400Z,12.93
2022-09-10T20:14:13.979Z,9.05
2022-09-10T20:16:43.474Z,10.50
2022-09-10T20:19:13.934Z,10.02
2022-09-10T20:21:42.570Z,10.98
2022-09-10T20:24:10.292Z,18.05
2022-09-10T20:26:38.614Z,12.05
2022-09-10T20:29:09.447Z,13.95
2022-09-10T20:31:37.575Z,14.88
2022-09-10T20:34:07.298Z,17.13
2022-09-10T20:36:36.044Z,16.67
2022-09-10T20:39:03.510Z,10.50
2022-09-10T20:41:30.807Z,14.30
2022-09-10T20:44:00.146Z,19.67
2022-09-10T20:46:29.939Z,19.35
2022-09-10T20:49:05.343Z,13.18
2022-09-10T20:51:37.569Z,11.73
2022-09-10T20:54:06.454Z,15.13
2022-09-10T20:56:33.946Z,14.02
2022-09-10T20:59:02.285Z,13.43
2022-09-10T21:01:33.780Z,15.15
2022-09-10T21:04:01.681Z,21.17
2022-09-10T21:06:31.507Z,14.15
2022-09-10T21:08:59.400Z,12.05
2022-09-10T21:11:29.520Z,16.27
2022-09-10T21:14:02.245Z,14.63
2022-09-10T21:16:31.692Z,9.90
2022-09-10T21:19:08.073Z,11.93
2022-09-10T21:21:36.554Z,17.30
2022-09-10T21:24:10.538Z,12.93
2022-09-10T21:26:39.867Z,9.27
2022-09-10T21:29:11.122Z,11.35
2022-09-10T21:31:38.996Z,17.80
2022-09-10T21:34:06.719Z,14.23
2022-09-10T21:36:37.035Z,10.50
2022-09-10T21:39:07.776Z,7.57
2022-09-10T21:41:38.365Z,13.23
2022-09-10T21:44:09.085Z,11.68
2022-09-10T21:46:36.533Z,12.90
2022-09-10T21:49:03.849Z,10.50
2022-09-10T21:51:31.151Z,17.17
2022-09-10T21:53:59.753Z,8.32
2022-09-10T21:56:29.822Z,9.88
2022-09-10T21:59:00.340Z,8.23
2022-09-10T22:01:30.411Z,11.50
2022-09-10T22:04:02.645Z,11.05
2022-09-10T22:06:32.440Z,10.43
2022-09-10T22:09:01.858Z,11.60
2022-09-10T22:11:32.610Z,11.88
2022-09-10T22:14:02.101Z,11.63
2022-09-10T22:16:31.540Z,12.38
2022-09-10T22:19:01.815Z,11.18
2022-09-10T22:21:29.674Z,8.85
2022-09-10T22:23:56.840Z,10.45
2022-09-10T22:26:28.524Z,6.90
2022-09-10T22:28:57.521Z,7.05
2022-09-10T22:31:29.602Z,6.85
2022-09-10T22:33:59.238Z,10.85
2022-09-10T22:36:31.336Z,5.68
2022-09-10T22:39:05.513Z,9.40
2022-09-10T22:41:34.915Z,6.50
2022-09-10T22:44:03.269Z,6.97
2022-09-10T22:46:31.255Z,6.78
2022-09-10T22:48:58.499Z,7.75
2022-09-10T22:51:31.357Z,7.78
2022-09-10T22:53:58.677Z,5.22
2022-09-10T22:56:27.617Z,8.73
2022-09-10T22:58:56.869Z,6.68
2022-09-10T23:01:34.904Z,4.78
2022-09-10T23:04:02.832Z,7.32
2022-09-10T23:06:32.202Z,4.28
2022-09-10T23:09:06.365Z,5.30
2022-09-10T23:11:34.819Z,3.55
2022-09-10T23:14:05.996Z,3.13
2022-09-10T23:16:35.912Z,3.88
2022-09-10T23:19:07.625Z,4.03
2022-09-10T23:21:36.059Z,4.07
2022-09-10T23:24:08.385Z,6.20
2022-09-10T23:26:35.494Z,6.82
2022-09-10T23:29:06.490Z,5.30
2022-09-10T23:31:36.411Z,2.80
2022-09-10T23:34:12.421Z,4.57
2022-09-10T23:36:42.190Z,6.03
2022-09-10T23:39:12.983Z,3.53
2022-09-10T23:41:40.557Z,3.88
2022-09-10T23:44:08.404Z,6.03
2022-09-10T23:46:36.566Z,9.25
2022-09-10T23:49:04.111Z,8.82
2022-09-10T23:51:32.370Z,4.93
2022-09-10T23:53:59.796Z,5.22
2022-09-10T23:56:28.752Z,3.92
2022-09-10T23:58:57.051Z,4.72
